sensor_id;sensor_type;location;lat;lon;timestamp;P1;durP1;ratioP1;P2;durP2;ratioP2
36441;SDS011;22470;50.824;16.284;2022-09-09T00:04:36;12.57;;;8.88;;
36441;SDS011;22470;50.824;16.284;2022-09-09T00:12:29;11.35;;;8.85;;
36441;SDS011;22470;50.824;16.284;2022-09-09T00:15:20;11.82;;;9.13;;
36441;SDS011;22470;50.824;16.284;2022-09-09T00:20:38;12.40;;;8.02;;
36441;SDS011;22470;50.824;16.284;2022-09-09T00:23:25;12.55;;;8.95;;
36441;SDS011;22470;50.824;16.284;2022-09-09T00:28:48;13.15;;;8.15;;
36441;SDS011;22470;50.824;16.284;2022-09-09T00:31:28;11.93;;;8.50;;
36441;SDS011;22470;50.824;16.284;2022-09-09T00:36:54;11.75;;;7.82;;
36441;SDS011;22470;50.824;16.284;2022-09-09T00:39:32;9.95;;;7.38;;
36441;SDS011;22470;50.824;16.284;2022-09-09T00:42:13;10.48;;;7.68;;
36441;SDS011;22470;50.824;16.284;2022-09-09T00:44:58;11.73;;;7.78;;
36441;SDS011;22470;50.824;16.284;2022-09-09T00:58:22;10.48;;;7.35;;
36441;SDS011;22470;50.824;16.284;2022-09-09T01:00:51;11.10;;;7.15;;
36441;SDS011;22470;50.824;16.284;2022-09-09T01:03:34;12.13;;;7.88;;
36441;SDS011;22470;50.824;16.284;2022-09-09T01:11:21;9.63;;;6.72;;
36441;SDS011;22470;50.824;16.284;2022-09-09T01:27:37;10.77;;;5.93;;
36441;SDS011;22470;50.824;16.284;2022-09-09T01:30:09;9.50;;;6.30;;
36441;SDS011;22470;50.824;16.284;2022-09-09T01:35:07;11.40;;;6.20;;
36441;SDS011;22470;50.824;16.284;2022-09-09T01:37:37;11.48;;;6.53;;
36441;SDS011;22470;50.824;16.284;2022-09-09T01:40:04;10.25;;;6.38;;
36441;SDS011;22470;50.824;16.284;2022-09-09T01:42:34;9.82;;;6.35;;
36441;SDS011;22470;50.824;16.284;2022-09-09T01:45:04;10.23;;;6.38;;
36441;SDS011;22470;50.824;16.284;2022-09-09T01:47:35;10.32;;;6.63;;
36441;SDS011;22470;50.824;16.284;2022-09-09T01:50:02;9.95;;;5.90;;
36441;SDS011;22470;50.824;16.284;2022-09-09T01:52:30;11.63;;;7.10;;
36441;SDS011;22470;50.824;16.284;2022-09-09T01:54:59;11.93;;;6.30;;
36441;SDS011;22470;50.824;16.284;2022-09-09T02:00:11;11.48;;;7.07;;
36441;SDS011;22470;50.824;16.284;2022-09-09T02:08:29;10.57;;;5.93;;
36441;SDS011;22470;50.824;16.284;2022-09-09T02:11:05;10.23;;;5.53;;
36441;SDS011;22470;50.824;16.284;2022-09-09T02:13:40;9.50;;;6.30;;
36441;SDS011;22470;50.824;16.284;2022-09-09T02:18:49;12.10;;;6.15;;
36441;SDS011;22470;50.824;16.284;2022-09-09T02:21:28;8.35;;;5.80;;
36441;SDS011;22470;50.824;16.284;2022-09-09T02:23:58;11.57;;;6.43;;
36441;SDS011;22470;50.824;16.284;2022-09-09T02:26:27;11.13;;;6.43;;
36441;SDS011;22470;50.824;16.284;2022-09-09T02:28:57;9.55;;;;;
36441;SDS011;22470;50.824;16.284;2022-09-09T02:31:44;8.93;;;5.75;;
36441;SDS011;22470;50.824;16.284;2022-09-09T02:34:16;10.23;;;6.03;;
36441;SDS011;22470;50.824;16.284;2022-09-09T02:36:46;11.35;;;6.25;;
36441;SDS011;22470;50.824;16.284;2022-09-09T02:41:50;8.65;;;5.80;;
36441;SDS011;22470;50.824;16.284;2022-09-09T02:44:19;9.60;;;6.13;;
36441;SDS011;22470;50.824;16.284;2022-09-09T02:52:04;10.98;;;6.05;;
36441;SDS011;22470;50.824;16.284;2022-09-09T02:54:42;9.75;;;6.22;;
36441;SDS011;22470;50.824;16.284;2022-09-09T02:59:50;12.88;;;6.53;;
36441;SDS011;22470;50.824;16.284;2022-09-09T03:02:17;11.13;;;6.32;;
36441;SDS011;22470;50.824;16.284;2022-09-09T03:04:45;12.82;;;7.35;;
36441;SDS011;22470;50.824;16.284;2022-09-09T03:07:12;12.50;;;6.63;;
36441;SDS011;22470;50.824;16.284;2022-09-09T03:09:40;11.32;;;6.53;;
36441;SDS011;22470;50.824;16.284;2022-09-09T03:12:07;9.35;;;6.72;;
36441;SDS011;22470;50.824;16.284;2022-09-09T03:14:37;10.18;;;6.57;;
36441;SDS011;22470;50.824;16.284;2022-09-09T03:17:07;10.23;;;6.03;;
36441;SDS011;22470;50.824;16.284;2022-09-09T03:19:34;11.38;;;6.90;;
36441;SDS011;22470;50.824;16.284;2022-09-09T03:22:04;11.35;;;7.15;;
36441;SDS011;22470;50.824;16.284;2022-09-09T03:24:31;11.35;;;6.85;;
36441;SDS011;22470;50.824;16.284;2022-09-09T03:27:00;11.10;;;6.63;;
36441;SDS011;22470;50.824;16.284;2022-09-09T03:29:28;9.80;;;6.45;;
36441;SDS011;22470;50.824;16.284;2022-09-09T03:31:55;10.35;;;6.35;;
36441;SDS011;22470;50.824;16.284;2022-09-09T03:34:22;9.77;;;5.80;;
36441;SDS011;22470;50.824;16.284;2022-09-09T03:36:49;9.02;;;5.82;;
36441;SDS011;22470;50.824;16.284;2022-09-09T03:39:16;10.73;;;6.30;;
36441;SDS011;22470;50.824;16.284;2022-09-09T03:41:44;13.68;;;6.13;;
36441;SDS011;22470;50.824;16.284;2022-09-09T03:44:11;10.80;;;5.95;;
36441;SDS011;22470;50.824;16.284;2022-09-09T03:46:40;11.55;;;6.05;;
36441;SDS011;22470;50.824;16.284;2022-09-09T03:49:08;11.43;;;6.68;;
36441;SDS011;22470;50.824;16.284;2022-09-09T03:51:35;10.30;;;6.15;;
36441;SDS011;22470;50.824;16.284;2022-09-09T03:54:05;11.40;;;6.30;;
36441;SDS011;22470;50.824;16.284;2022-09-09T03:56:34;12.95;;;7.30;;
36441;SDS011;22470;50.824;16.284;2022-09-09T03:59:04;14.48;;;6.95;;
36441;SDS011;22470;50.824;16.284;2022-09-09T04:01:34;13.05;;;7.30;;
36441;SDS011;22470;50.824;16.284;2022-09-09T04:04:01;12.77;;;6.85;;
36441;SDS011;22470;50.824;16.284;2022-09-09T04:06:29;13.38;;;7.97;;
36441;SDS011;22470;50.824;16.284;2022-09-09T04:08:56;10.15;;;5.78;;
36441;SDS011;22470;50.824;16.284;2022-09-09T04:11:23;11.52;;;6.25;;
36441;SDS011;22470;50.824;16.284;2022-09-09T04:13:51;11.82;;;5.80;;
36441;SDS011;22470;50.824;16.284;2022-09-09T04:16:18;10.73;;;6.13;;
36441;SDS011;22470;50.824;16.284;2022-09-09T04:18:45;10.70;;;5.85;;
36441;SDS011;22470;50.824;16.284;2022-09-09T04:21:13;10.25;;;5.80;;
36441;SDS011;22470;50.824;16.284;2022-09-09T04:23:43;10.75;;;5.78;;
36441;SDS011;22470;50.824;16.284;2022-09-09T04:26:10;9.10;;;5.75;;
36441;SDS011;22470;50.824;16.284;2022-09-09T04:28:40;13.77;;;6.40;;
36441;SDS011;22470;50.824;16.284;2022-09-09T04:31:10;10.20;;;6.40;;
36441;SDS011;22470;50.824;16.284;2022-09-09T04:33:46;12.68;;;6.57;;
36441;SDS011;22470;50.824;16.284;2022-09-09T04:36:13;10.75;;;6.47;;
36441;SDS011;22470;50.824;16.284;2022-09-09T04:38:40;15.00;;;9.60;;
36441;SDS011;22470;50.824;16.284;2022-09-09T04:41:11;16.80;;;10.15;;
36441;SDS011;22470;50.824;16.284;2022-09-09T04:43:38;13.73;;;8.45;;
36441;SDS011;22470;50.824;16.284;2022-09-09T04:46:06;15.73;;;8.25;;
36441;SDS011;22470;50.824;16.284;2022-09-09T04:48:33;15.30;;;7.90;;
36441;SDS011;22470;50.824;16.284;2022-09-09T04:51:04;15.80;;;9.68;;
36441;SDS011;22470;50.824;16.284;2022-09-09T04:53:33;18.60;;;11.20;;
36441;SDS011;22470;50.824;16.284;2022-09-09T04:56:02;19.88;;;11.88;;
36441;SDS011;22470;50.824;16.284;2022-09-09T04:58:34;20.10;;;12.38;;
36441;SDS011;22470;50.824;16.284;2022-09-09T05:01:06;20.77;;;11.50;;
36441;SDS011;22470;50.824;16.284;2022-09-09T05:03:36;19.55;;;12.15;;
36441;SDS011;22470;50.824;16.284;2022-09-09T05:06:07;21.08;;;12.68;;
36441;SDS011;22470;50.824;16.284;2022-09-09T05:08:45;18.33;;;11.30;;
36441;SDS011;22470;50.824;16.284;2022-09-09T05:16:14;20.67;;;12.95;;
36441;SDS011;22470;50.824;16.284;2022-09-09T05:18:43;15.98;;;10.35;;
36441;SDS011;22470;50.824;16.284;2022-09-09T05:21:11;14.63;;;8.60;;
36441;SDS011;22470;50.824;16.284;2022-09-09T05:23:39;15.10;;;8.82;;
36441;SDS011;22470;50.824;16.284;2022-09-09T05:26:12;12.80;;;8.15;;
36441;SDS011;22470;50.824;16.284;2022-09-09T05:28:46;15.48;;;7.80;;
36441;SDS011;22470;50.824;16.284;2022-09-09T05:31:17;11.68;;;6.53;;
36441;SDS011;22470;50.824;16.284;2022-09-09T05:33:47;11.27;;;6.93;;
36441;SDS011;22470;50.824;16.284;2022-09-09T05:36:21;11.32;;;6.10;;
36441;SDS011;22470;50.824;16.284;2022-09-09T05:38:51;11.43;;;6.30;;
36441;SDS011;22470;50.824;16.284;2022-09-09T05:41:21;9.93;;;5.82;;
36441;SDS011;22470;50.824;16.284;2022-09-09T05:43:48;10.38;;;5.13;;
36441;SDS011;22470;50.824;16.284;2022-09-09T05:46:19;10.57;;;5.07;;
36441;SDS011;22470;50.824;16.284;2022-09-09T05:48:50;11.73;;;5.57;;
36441;SDS011;22470;50.824;16.284;2022-09-09T05:51:22;9.82;;;5.60;;
36441;SDS011;22470;50.824;16.284;2022-09-09T05:53:53;9.43;;;4.95;;
36441;SDS011;22470;50.824;16.284;2022-09-09T05:56:22;8.82;;;4.70;;
36441;SDS011;22470;50.824;16.284;2022-09-09T05:58:51;8.50;;;4.13;;
36441;SDS011;22470;50.824;16.284;2022-09-09T06:01:23;9.10;;;4.00;;
36441;SDS011;22470;50.824;16.284;2022-09-09T06:03:52;7.53;;;4.15;;
36441;SDS011;22470;50.824;16.284;2022-09-09T06:06:21;6.97;;;4.13;;
36441;SDS011;22470;50.824;16.284;2022-09-09T06:08:53;6.32;;;3.33;;
36441;SDS011;22470;50.824;16.284;2022-09-09T06:11:25;7.82;;;3.95;;
36441;SDS011;22470;50.824;16.284;2022-09-09T06:13:56;6.65;;;3.50;;
36441;SDS011;22470;50.824;16.284;2022-09-09T06:16:25;7.93;;;3.33;;
36441;SDS011;22470;50.824;16.284;2022-09-09T06:18:53;9.15;;;4.38;;
36441;SDS011;22470;50.824;16.284;2022-09-09T06:21:29;8.10;;;4.47;;
36441;SDS011;22470;50.824;16.284;2022-09-09T06:24:01;9.15;;;4.13;;
36441;SDS011;22470;50.824;16.284;2022-09-09T06:26:30;5.15;;;3.10;;
36441;SDS011;22470;50.824;16.284;2022-09-09T06:29:00;9.27;;;3.70;;
36441;SDS011;22470;50.824;16.284;2022-09-09T06:31:30;6.97;;;3.30;;
36441;SDS011;22470;50.824;16.284;2022-09-09T06:33:59;5.05;;;3.00;;
36441;SDS011;22470;50.824;16.284;2022-09-09T06:36:31;3.97;;;2.70;;
36441;SDS011;22470;50.824;16.284;2022-09-09T06:39:00;6.40;;;2.92;;
36441;SDS011;22470;50.824;16.284;2022-09-09T06:41:28;6.72;;;2.83;;
36441;SDS011;22470;50.824;16.284;2022-09-09T06:43:57;6.40;;;3.13;;
36441;SDS011;22470;50.824;16.284;2022-09-09T06:46:26;6.28;;;2.83;;
36441;SDS011;22470;50.824;16.284;2022-09-09T06:48:55;4.95;;;2.70;;
36441;SDS011;22470;50.824;16.284;2022-09-09T06:51:23;5.15;;;2.40;;
36441;SDS011;22470;50.824;16.284;2022-09-09T06:53:58;4.57;;;2.20;;
36441;SDS011;22470;50.824;16.284;2022-09-09T06:56:30;4.47;;;2.30;;
36441;SDS011;22470;50.824;16.284;2022-09-09T06:59:03;5.13;;;2.50;;
36441;SDS011;22470;50.824;16.284;2022-09-09T07:01:39;7.78;;;3.20;;
36441;SDS011;22470;50.824;16.284;2022-09-09T07:04:07;5.85;;;2.00;;
36441;SDS011;22470;50.824;16.284;2022-09-09T07:06:35;4.62;;;1.88;;
36441;SDS011;22470;50.824;16.284;2022-09-09T07:09:05;4.40;;;1.90;;
36441;SDS011;22470;50.824;16.284;2022-09-09T07:11:40;3.53;;;1.80;;
36441;SDS011;22470;50.824;16.284;2022-09-09T07:14:09;4.75;;;2.40;;
36441;SDS011;22470;50.824;16.284;2022-09-09T07:16:40;3.85;;;2.25;;
36441;SDS011;22470;50.824;16.284;2022-09-09T07:19:08;7.38;;;2.20;;
36441;SDS011;22470;50.824;16.284;2022-09-09T07:21:36;5.18;;;2.70;;
36441;SDS011;22470;50.824;16.284;2022-09-09T07:24:04;6.07;;;2.65;;
36441;SDS011;22470;50.824;16.284;2022-09-09T07:26:31;4.35;;;2.20;;
36441;SDS011;22470;50.824;16.284;2022-09-09T07:28:58;5.32;;;2.67;;
36441;SDS011;22470;50.824;16.284;2022-09-09T07:31:30;4.72;;;2.30;;
36441;SDS011;22470;50.824;16.284;2022-09-09T07:34:02;6.90;;;2.60;;
36441;SDS011;22470;50.824;16.284;2022-09-09T07:36:34;4.55;;;2.22;;
36441;SDS011;22470;50.824;16.284;2022-09-09T07:39:05;5.13;;;2.20;;
36441;SDS011;22470;50.824;16.284;2022-09-09T07:41:38;5.05;;;2.40;;
36441;SDS011;22470;50.824;16.284;2022-09-09T07:44:09;6.18;;;2.17;;
36441;SDS011;22470;50.824;16.284;2022-09-09T07:46:40;4.03;;;1.85;;
36441;SDS011;22470;50.824;16.284;2022-09-09T07:49:07;5.05;;;2.53;;
36441;SDS011;22470;50.824;16.284;2022-09-09T07:51:36;4.50;;;2.10;;
36441;SDS011;22470;50.824;16.284;2022-09-09T07:54:08;5.78;;;2.28;;
36441;SDS011;22470;50.824;16.284;2022-09-09T07:56:39;3.65;;;2.10;;
36441;SDS011;22470;50.824;16.284;2022-09-09T07:59:08;8.10;;;2.53;;
36441;SDS011;22470;50.824;16.284;2022-09-09T08:01:37;6.28;;;2.42;;
36441;SDS011;22470;50.824;16.284;2022-09-09T08:04:16;6.30;;;2.70;;
36441;SDS011;22470;50.824;16.284;2022-09-09T08:06:51;10.60;;;3.67;;
36441;SDS011;22470;50.824;16.284;2022-09-09T08:09:23;6.03;;;3.20;;
36441;SDS011;22470;50.824;16.284;2022-09-09T08:11:51;8.40;;;2.85;;
36441;SDS011;22470;50.824;16.284;2022-09-09T08:14:21;6.03;;;2.75;;
36441;SDS011;22470;50.824;16.284;2022-09-09T08:16:50;4.13;;;2.50;;
36441;SDS011;22470;50.824;16.284;2022-09-09T08:19:20;7.20;;;2.60;;
36441;SDS011;22470;50.824;16.284;2022-09-09T08:21:50;4.53;;;2.30;;
36441;SDS011;22470;50.824;16.284;2022-09-09T08:24:17;4.95;;;2.50;;
36441;SDS011;22470;50.824;16.284;2022-09-09T08:26:46;6.03;;;2.55;;
36441;SDS011;22470;50.824;16.284;2022-09-09T08:29:20;7.05;;;2.70;;
36441;SDS011;22470;50.824;16.284;2022-09-09T08:31:48;6.75;;;2.92;;
36441;SDS011;22470;50.824;16.284;2022-09-09T08:34:17;4.97;;;2.30;;
36441;SDS011;22470;50.824;16.284;2022-09-09T08:36:45;3.13;;;2.08;;
36441;SDS011;22470;50.824;16.284;2022-09-09T08:39:14;4.90;;;2.30;;
36441;SDS011;22470;50.824;16.284;2022-09-09T08:50:56;7.93;;;3.78;;
36441;SDS011;22470;50.824;16.284;2022-09-09T08:53:27;8.20;;;3.60;;
36441;SDS011;22470;50.824;16.284;2022-09-09T08:55:56;4.60;;;3.10;;
36441;SDS011;22470;50.824;16.284;2022-09-09T09:11:36;6.05;;;3.10;;
36441;SDS011;22470;50.824;16.284;2022-09-09T09:14:24;5.15;;;2.40;;
36441;SDS011;22470;50.824;16.284;2022-09-09T09:19:27;3.97;;;2.40;;
36441;SDS011;22470;50.824;16.284;2022-09-09T09:24:50;6.35;;;1.90;;
36441;SDS011;22470;50.824;16.284;2022-09-09T09:27:35;3.75;;;1.90;;
36441;SDS011;22470;50.824;16.284;2022-09-09T09:30:17;6.47;;;2.00;;
36441;SDS011;22470;50.824;16.284;2022-09-09T09:33:02;2.67;;;1.70;;
36441;SDS011;22470;50.824;16.284;2022-09-09T09:35:40;2.60;;;1.60;;
36441;SDS011;22470;50.824;16.284;2022-09-09T09:38:20;6.28;;;2.00;;
36441;SDS011;22470;50.824;16.284;2022-09-09T09:41:09;3.03;;;1.70;;
36441;SDS011;22470;50.824;16.284;2022-09-09T09:43:37;5.85;;;2.10;;
36441;SDS011;22470;50.824;16.284;2022-09-09T09:46:19;3.80;;;1.85;;
36441;SDS011;22470;50.824;16.284;2022-09-09T09:48:59;2.37;;;1.80;;
36441;SDS011;22470;50.824;16.284;2022-09-09T09:51:29;3.47;;;1.88;;
36441;SDS011;22470;50.824;16.284;2022-09-09T09:57:12;6.57;;;3.15;;
36441;SDS011;22470;50.824;16.284;2022-09-09T09:59:43;3.75;;;2.00;;
36441;SDS011;22470;50.824;16.284;2022-09-09T10:02:23;3.70;;;1.98;;
36441;SDS011;22470;50.824;16.284;2022-09-09T10:05:05;4.82;;;1.83;;
36441;SDS011;22470;50.824;16.284;2022-09-09T10:08:08;5.18;;;1.80;;
36441;SDS011;22470;50.824;16.284;2022-09-09T10:19:18;6.32;;;2.08;;
36441;SDS011;22470;50.824;16.284;2022-09-09T10:24:50;3.45;;;1.88;;
36441;SDS011;22470;50.824;16.284;2022-09-09T10:33:13;3.63;;;1.80;;
36441;SDS011;22470;50.824;16.284;2022-09-09T11:07:05;10.30;;;5.25;;
36441;SDS011;22470;50.824;16.284;2022-09-09T11:09:39;5.22;;;2.55;;
36441;SDS011;22470;50.824;16.284;2022-09-09T11:12:13;3.17;;;1.90;;
36441;SDS011;22470;50.824;16.284;2022-09-09T11:14:49;5.88;;;2.35;;
36441;SDS011;22470;50.824;16.284;2022-09-09T11:17:26;7.57;;;4.25;;
36441;SDS011;22470;50.824;16.284;2022-09-09T11:20:00;10.38;;;4.18;;
36441;SDS011;22470;50.824;16.284;2022-09-09T11:27:56;7.22;;;2.65;;
36441;SDS011;22470;50.824;16.284;2022-09-09T11:33:29;7.95;;;2.97;;
36441;SDS011;22470;50.824;16.284;2022-09-09T11:39:12;5.03;;;1.88;;
36441;SDS011;22470;50.824;16.284;2022-09-09T11:41:44;6.95;;;2.70;;
36441;SDS011;22470;50.824;16.284;2022-09-09T11:44:17;4.00;;;2.00;;
36441;SDS011;22470;50.824;16.284;2022-09-09T11:46:55;5.85;;;2.10;;
36441;SDS011;22470;50.824;16.284;2022-09-09T11:49:26;5.30;;;2.30;;
36441;SDS011;22470;50.824;16.284;2022-09-09T11:51:56;7.53;;;2.83;;
36441;SDS011;22470;50.824;16.284;2022-09-09T11:54:28;6.82;;;2.88;;
36441;SDS011;22470;50.824;16.284;2022-09-09T11:57:00;5.07;;;2.20;;
36441;SDS011;22470;50.824;16.284;2022-09-09T11:59:50;6.50;;;2.80;;
36441;SDS011;22470;50.824;16.284;2022-09-09T12:02:24;8.45;;;2.70;;
36441;SDS011;22470;50.824;16.284;2022-09-09T12:04:57;7.97;;;2.65;;
36441;SDS011;22470;50.824;16.284;2022-09-09T12:13:19;5.32;;;2.53;;
36441;SDS011;22470;50.824;16.284;2022-09-09T12:15:49;7.00;;;3.10;;
36441;SDS011;22470;50.824;16.284;2022-09-09T12:24:02;6.13;;;2.30;;
36441;SDS011;22470;50.824;16.284;2022-09-09T12:32:22;7.40;;;2.58;;
36441;SDS011;22470;50.824;16.284;2022-09-09T12:37:38;5.40;;;2.72;;
36441;SDS011;22470;50.824;16.284;2022-09-09T12:40:19;6.80;;;2.53;;
36441;SDS011;22470;50.824;16.284;2022-09-09T12:42:47;6.28;;;2.50;;
36441;SDS011;22470;50.824;16.284;2022-09-09T12:45:21;6.80;;;1.98;;
36441;SDS011;22470;50.824;16.284;2022-09-09T12:50:29;10.55;;;3.53;;
36441;SDS011;22470;50.824;16.284;2022-09-09T12:53:03;11.00;;;5.30;;
36441;SDS011;22470;50.824;16.284;2022-09-09T12:55:37;5.60;;;2.50;;
36441;SDS011;22470;50.824;16.284;2022-09-09T12:58:06;6.55;;;2.00;;
36441;SDS011;22470;50.824;16.284;2022-09-09T13:00:33;3.50;;;2.25;;
36441;SDS011;22470;50.824;16.284;2022-09-09T13:03:02;5.22;;;2.00;;
36441;SDS011;22470;50.824;16.284;2022-09-09T13:05:42;6.47;;;2.40;;
36441;SDS011;22470;50.824;16.284;2022-09-09T13:08:10;4.30;;;1.98;;
36441;SDS011;22470;50.824;16.284;2022-09-09T13:10:49;4.38;;;2.30;;
36441;SDS011;22470;50.824;16.284;2022-09-09T13:13:35;7.10;;;2.50;;
36441;SDS011;22470;50.824;16.284;2022-09-09T13:16:06;5.57;;;2.28;;
36441;SDS011;22470;50.824;16.284;2022-09-09T13:18:49;6.72;;;2.92;;
36441;SDS011;22470;50.824;16.284;2022-09-09T13:21:19;7.68;;;2.63;;
36441;SDS011;22470;50.824;16.284;2022-09-09T13:23:57;5.00;;;2.13;;
36441;SDS011;22470;50.824;16.284;2022-09-09T13:26:25;4.15;;;2.20;;
36441;SDS011;22470;50.824;16.284;2022-09-09T13:28:53;7.47;;;2.70;;
36441;SDS011;22470;50.824;16.284;2022-09-09T13:31:29;5.85;;;2.40;;
36441;SDS011;22470;50.824;16.284;2022-09-09T13:33:59;4.78;;;2.22;;
36441;SDS011;22470;50.824;16.284;2022-09-09T13:36:39;3.72;;;2.22;;
36441;SDS011;22470;50.824;16.284;2022-09-09T13:39:15;6.97;;;2.42;;
36441;SDS011;22470;50.824;16.284;2022-09-09T13:41:45;7.00;;;2.42;;
36441;SDS011;22470;50.824;16.284;2022-09-09T13:44:21;5.45;;;2.00;;
36441;SDS011;22470;50.824;16.284;2022-09-09T13:47:04;5.38;;;2.38;;
36441;SDS011;22470;50.824;16.284;2022-09-09T13:49:44;5.03;;;2.45;;
36441;SDS011;22470;50.824;16.284;2022-09-09T13:52:12;5.63;;;2.30;;
36441;SDS011;22470;50.824;16.284;2022-09-09T13:54:41;5.57;;;2.42;;
36441;SDS011;22470;50.824;16.284;2022-09-09T13:57:15;4.40;;;2.03;;
36441;SDS011;22470;50.824;16.284;2022-09-09T13:59:44;5.72;;;2.40;;
36441;SDS011;22470;50.824;16.284;2022-09-09T14:02:31;4.47;;;2.03;;
36441;SDS011;22470;50.824;16.284;2022-09-09T14:04:59;5.72;;;2.42;;
36441;SDS011;22470;50.824;16.284;2022-09-09T14:07:27;4.47;;;2.33;;
36441;SDS011;22470;50.824;16.284;2022-09-09T14:09:54;5.45;;;2.10;;
36441;SDS011;22470;50.824;16.284;2022-09-09T14:12:22;7.80;;;2.60;;
36441;SDS011;22470;50.824;16.284;2022-09-09T14:14:59;4.10;;;2.03;;
36441;SDS011;22470;50.824;16.284;2022-09-09T14:17:26;4.00;;;1.90;;
36441;SDS011;22470;50.824;16.284;2022-09-09T14:19:53;6.55;;;2.25;;
36441;SDS011;22470;50.824;16.284;2022-09-09T14:22:21;4.25;;;2.22;;
36441;SDS011;22470;50.824;16.284;2022-09-09T14:24:49;8.90;;;3.03;;
36441;SDS011;22470;50.824;16.284;2022-09-09T14:27:16;4.50;;;2.25;;
36441;SDS011;22470;50.824;16.284;2022-09-09T14:29:48;6.05;;;2.83;;
36441;SDS011;22470;50.824;16.284;2022-09-09T14:32:20;8.77;;;4.35;;
36441;SDS011;22470;50.824;16.284;2022-09-09T14:34:47;4.32;;;2.63;;
36441;SDS011;22470;50.824;16.284;2022-09-09T14:37:15;5.55;;;2.20;;
36441;SDS011;22470;50.824;16.284;2022-09-09T14:39:43;3.95;;;1.90;;
36441;SDS011;22470;50.824;16.284;2022-09-09T14:42:11;4.43;;;2.05;;
36441;SDS011;22470;50.824;16.284;2022-09-09T14:44:38;4.80;;;2.17;;
36441;SDS011;22470;50.824;16.284;2022-09-09T14:47:05;4.50;;;2.05;;
36441;SDS011;22470;50.824;16.284;2022-09-09T14:49:34;5.55;;;1.98;;
36441;SDS011;22470;50.824;16.284;2022-09-09T14:52:02;6.90;;;2.40;;
36441;SDS011;22470;50.824;16.284;2022-09-09T14:54:33;4.40;;;2.10;;
36441;SDS011;22470;50.824;16.284;2022-09-09T14:57:00;5.53;;;1.88;;
36441;SDS011;22470;50.824;16.284;2022-09-09T14:59:27;6.13;;;2.75;;
36441;SDS011;22470;50.824;16.284;2022-09-09T15:01:54;8.60;;;2.63;;
36441;SDS011;22470;50.824;16.284;2022-09-09T15:04:22;6.35;;;2.33;;
36441;SDS011;22470;50.824;16.284;2022-09-09T15:06:49;5.75;;;3.03;;
36441;SDS011;22470;50.824;16.284;2022-09-09T15:09:16;9.13;;;2.80;;
36441;SDS011;22470;50.824;16.284;2022-09-09T15:11:44;7.55;;;2.70;;
36441;SDS011;22470;50.824;16.284;2022-09-09T15:14:17;6.88;;;3.10;;
36441;SDS011;22470;50.824;16.284;2022-09-09T15:16:51;6.05;;;2.72;;
36441;SDS011;22470;50.824;16.284;2022-09-09T15:19:18;4.70;;;2.40;;
36441;SDS011;22470;50.824;16.284;2022-09-09T15:21:48;7.53;;;2.70;;
36441;SDS011;22470;50.824;16.284;2022-09-09T15:24:18;8.15;;;2.58;;
36441;SDS011;22470;50.824;16.284;2022-09-09T15:26:45;7.78;;;2.90;;
36441;SDS011;22470;50.824;16.284;2022-09-09T15:29:13;6.95;;;3.08;;
36441;SDS011;22470;50.824;16.284;2022-09-09T15:31:42;7.75;;;3.00;;
36441;SDS011;22470;50.824;16.284;2022-09-09T15:34:09;12.45;;;4.07;;
36441;SDS011;22470;50.824;16.284;2022-09-09T15:36:40;9.88;;;4.13;;
36441;SDS011;22470;50.824;16.284;2022-09-09T15:39:10;8.63;;;3.55;;
36441;SDS011;22470;50.824;16.284;2022-09-09T15:41:39;8.30;;;2.92;;
36441;SDS011;22470;50.824;16.284;2022-09-09T15:44:07;8.02;;;3.17;;
36441;SDS011;22470;50.824;16.284;2022-09-09T15:49:12;9.82;;;3.28;;
36441;SDS011;22470;50.824;16.284;2022-09-09T15:54:22;8.10;;;3.20;;
36441;SDS011;22470;50.824;16.284;2022-09-09T15:56:54;5.15;;;2.42;;
36441;SDS011;22470;50.824;16.284;2022-09-09T15:59:24;8.88;;;2.42;;
36441;SDS011;22470;50.824;16.284;2022-09-09T16:01:55;6.47;;;2.97;;
36441;SDS011;22470;50.824;16.284;2022-09-09T16:04:26;8.93;;;3.17;;
36441;SDS011;22470;50.824;16.284;2022-09-09T16:07:04;7.07;;;2.38;;
36441;SDS011;22470;50.824;16.284;2022-09-09T16:09:34;6.38;;;2.28;;
36441;SDS011;22470;50.824;16.284;2022-09-09T16:12:02;5.00;;;2.50;;
36441;SDS011;22470;50.824;16.284;2022-09-09T16:14:32;6.80;;;2.83;;
36441;SDS011;22470;50.824;16.284;2022-09-09T16:17:00;5.72;;;2.42;;
36441;SDS011;22470;50.824;16.284;2022-09-09T16:19:27;7.97;;;3.05;;
36441;SDS011;22470;50.824;16.284;2022-09-09T16:21:54;7.32;;;2.45;;
36441;SDS011;22470;50.824;16.284;2022-09-09T16:24:24;4.90;;;2.15;;
36441;SDS011;22470;50.824;16.284;2022-09-09T16:26:54;7.22;;;2.58;;
36441;SDS011;22470;50.824;16.284;2022-09-09T16:29:21;5.45;;;2.22;;
36441;SDS011;22470;50.824;16.284;2022-09-09T16:31:49;3.88;;;2.35;;
36441;SDS011;22470;50.824;16.284;2022-09-09T17:43:27;26.27;;;18.15;;
36441;SDS011;22470;50.824;16.284;2022-09-09T17:45:54;14.13;;;7.68;;
36441;SDS011;22470;50.824;16.284;2022-09-09T17:48:21;10.70;;;5.60;;
36441;SDS011;22470;50.824;16.284;2022-09-09T17:50:56;6.28;;;3.20;;
36441;SDS011;22470;50.824;16.284;2022-09-09T17:53:24;10.77;;;3.95;;
36441;SDS011;22470;50.824;16.284;2022-09-09T17:55:54;7.65;;;4.10;;
36441;SDS011;22470;50.824;16.284;2022-09-09T17:58:27;16.77;;;8.35;;
36441;SDS011;22470;50.824;16.284;2022-09-09T18:00:54;23.27;;;12.73;;
36441;SDS011;22470;50.824;16.284;2022-09-09T18:03:21;41.60;;;18.73;;
36441;SDS011;22470;50.824;16.284;2022-09-09T18:05:48;18.75;;;8.05;;
36441;SDS011;22470;50.824;16.284;2022-09-09T18:08:16;11.45;;;5.90;;
36441;SDS011;22470;50.824;16.284;2022-09-09T18:10:50;14.40;;;6.97;;
36441;SDS011;22470;50.824;16.284;2022-09-09T18:13:21;15.43;;;8.38;;
36441;SDS011;22470;50.824;16.284;2022-09-09T18:15:49;16.75;;;7.97;;
36441;SDS011;22470;50.824;16.284;2022-09-09T18:18:16;19.63;;;8.52;;
36441;SDS011;22470;50.824;16.284;2022-09-09T18:20:46;8.30;;;3.67;;
36441;SDS011;22470;50.824;16.284;2022-09-09T18:23:22;7.93;;;3.70;;
36441;SDS011;22470;50.824;16.284;2022-09-09T18:25:50;6.82;;;3.33;;
36441;SDS011;22470;50.824;16.284;2022-09-09T18:28:25;8.80;;;3.00;;
36441;SDS011;22470;50.824;16.284;2022-09-09T18:30:52;10.85;;;3.88;;
36441;SDS011;22470;50.824;16.284;2022-09-09T18:33:20;7.47;;;3.65;;
36441;SDS011;22470;50.824;16.284;2022-09-09T18:35:50;8.73;;;3.90;;
36441;SDS011;22470;50.824;16.284;2022-09-09T18:38:17;7.68;;;3.80;;
36441;SDS011;22470;50.824;16.284;2022-09-09T18:40:44;7.75;;;3.63;;
36441;SDS011;22470;50.824;16.284;2022-09-09T18:43:11;8.85;;;3.50;;
36441;SDS011;22470;50.824;16.284;2022-09-09T18:45:39;6.50;;;2.60;;
36441;SDS011;22470;50.824;16.284;2022-09-09T18:48:06;6.00;;;2.20;;
36441;SDS011;22470;50.824;16.284;2022-09-09T18:50:33;7.45;;;3.17;;
36441;SDS011;22470;50.824;16.284;2022-09-09T18:53:01;9.57;;;3.17;;
36441;SDS011;22470;50.824;16.284;2022-09-09T18:55:28;11.70;;;3.90;;
36441;SDS011;22470;50.824;16.284;2022-09-09T18:57:55;10.20;;;3.40;;
36441;SDS011;22470;50.824;16.284;2022-09-09T19:00:23;7.13;;;2.85;;
36441;SDS011;22470;50.824;16.284;2022-09-09T19:02:51;10.02;;;3.05;;
36441;SDS011;22470;50.824;16.284;2022-09-09T19:05:19;8.35;;;2.95;;
36441;SDS011;22470;50.824;16.284;2022-09-09T19:07:49;6.90;;;3.20;;
36441;SDS011;22470;50.824;16.284;2022-09-09T19:10:19;7.75;;;3.20;;
36441;SDS011;22470;50.824;16.284;2022-09-09T19:12:49;7.05;;;3.08;;
36441;SDS011;22470;50.824;16.284;2022-09-09T19:15:16;10.00;;;3.40;;
36441;SDS011;22470;50.824;16.284;2022-09-09T19:17:44;6.13;;;2.42;;